sensor_id;sensor_type;location;lat;lon;timestamp;P1;durP1;ratioP1;P2;durP2;ratioP2
73747;SDS011;62056;52.130;5.428;2023-02-22T00:01:10;22.98;;;10.88;;
73747;SDS011;62056;52.130;5.428;2023-02-22T00:04:00;22.25;;;11.20;;
73747;SDS011;62056;52.130;5.428;2023-02-22T00:06:28;23.25;;;12.25;;
73747;SDS011;62056;52.130;5.428;2023-02-22T00:08:56;22.92;;;12.27;;
73747;SDS011;62056;52.130;5.428;2023-02-22T00:11:24;24.33;;;11.63;;
73747;SDS011;62056;52.130;5.428;2023-02-22T00:13:51;22.10;;;10.80;;
73747;SDS011;62056;52.130;5.428;2023-02-22T00:16:19;26.70;;;12.10;;
73747;SDS011;62056;52.130;5.428;2023-02-22T00:18:47;24.00;;;12.35;;
73747;SDS011;62056;52.130;5.428;2023-02-22T00:21:15;25.33;;;12.68;;
73747;SDS011;62056;52.130;5.428;2023-02-22T00:23:44;22.50;;;12.33;;
73747;SDS011;62056;52.130;5.428;2023-02-22T00:26:16;24.55;;;12.82;;
73747;SDS011;62056;52.130;5.428;2023-02-22T00:28:46;23.98;;;13.50;;
73747;SDS011;62056;52.130;5.428;2023-02-22T00:31:14;18.70;;;11.40;;
73747;SDS011;62056;52.130;5.428;2023-02-22T00:33:41;21.05;;;11.27;;
73747;SDS011;62056;52.130;5.428;2023-02-22T00:36:09;34.23;;;16.73;;
73747;SDS011;62056;52.130;5.428;2023-02-22T00:38:39;21.83;;;11.23;;
73747;SDS011;62056;52.130;5.428;2023-02-22T00:41:07;38.20;;;25.10;;
73747;SDS011;62056;52.130;5.428;2023-02-22T00:43:34;23.30;;;13.38;;
73747;SDS011;62056;52.130;5.428;2023-02-22T00:46:01;20.27;;;11.25;;
73747;SDS011;62056;52.130;5.428;2023-02-22T00:48:28;20.77;;;11.43;;
73747;SDS011;62056;52.130;5.428;2023-02-22T00:50:55;19.05;;;11.63;;
73747;SDS011;62056;52.130;5.428;2023-02-22T00:53:22;22.30;;;12.10;;
73747;SDS011;62056;52.130;5.428;2023-02-22T00:55:50;19.92;;;10.85;;
73747;SDS011;62056;52.130;5.428;2023-02-22T00:58:18;16.92;;;10.00;;
73747;SDS011;62056;52.130;5.428;2023-02-22T01:00:45;19.13;;;10.40;;
73747;SDS011;62056;52.130;5.428;2023-02-22T01:03:13;18.65;;;10.63;;
73747;SDS011;62056;52.130;5.428;2023-02-22T01:05:41;19.75;;;11.10;;
73747;SDS011;62056;52.130;5.428;2023-02-22T01:08:10;23.52;;;12.40;;
73747;SDS011;62056;52.130;5.428;2023-02-22T01:10:38;18.33;;;9.65;;
73747;SDS011;62056;52.130;5.428;2023-02-22T01:13:05;19.13;;;11.40;;
73747;SDS011;62056;52.130;5.428;2023-02-22T01:15:35;20.40;;;10.07;;
73747;SDS011;62056;52.130;5.428;2023-02-22T01:18:03;18.85;;;10.20;;
73747;SDS011;62056;52.130;5.428;2023-02-22T01:20:30;22.77;;;12.93;;
73747;SDS011;62056;52.130;5.428;2023-02-22T01:22:58;13.73;;;8.90;;
73747;SDS011;62056;52.130;5.428;2023-02-22T01:25:31;17.93;;;10.97;;
73747;SDS011;62056;52.130;5.428;2023-02-22T01:27:58;27.80;;;14.32;;
73747;SDS011;62056;52.130;5.428;2023-02-22T01:30:31;20.55;;;11.43;;
73747;SDS011;62056;52.130;5.428;2023-02-22T01:33:00;18.80;;;9.93;;
73747;SDS011;62056;52.130;5.428;2023-02-22T01:35:29;19.95;;;11.85;;
73747;SDS011;62056;52.130;5.428;2023-02-22T01:37:58;20.13;;;10.17;;
73747;SDS011;62056;52.130;5.428;2023-02-22T01:40:28;18.85;;;10.43;;
73747;SDS011;62056;52.130;5.428;2023-02-22T01:42:58;20.27;;;11.05;;
73747;SDS011;62056;52.130;5.428;2023-02-22T01:47:57;13.60;;;8.63;;
73747;SDS011;62056;52.130;5.428;2023-02-22T01:50:38;16.13;;;10.00;;
73747;SDS011;62056;52.130;5.428;2023-02-22T01:53:09;18.95;;;10.27;;
73747;SDS011;62056;52.130;5.428;2023-02-22T01:55:39;17.52;;;10.73;;
73747;SDS011;62056;52.130;5.428;2023-02-22T01:58:06;15.55;;;10.30;;
73747;SDS011;62056;52.130;5.428;2023-02-22T02:00:34;21.13;;;10.27;;
73747;SDS011;62056;52.130;5.428;2023-02-22T02:03:04;16.00;;;9.40;;
73747;SDS011;62056;52.130;5.428;2023-02-22T02:05:34;14.40;;;8.73;;
73747;SDS011;62056;52.130;5.428;2023-02-22T02:08:18;16.58;;;9.90;;
73747;SDS011;62056;52.130;5.428;2023-02-22T02:10:52;18.67;;;10.50;;
73747;SDS011;62056;52.130;5.428;2023-02-22T02:13:21;16.92;;;10.27;;
73747;SDS011;62056;52.130;5.428;2023-02-22T02:15:48;17.70;;;10.27;;
73747;SDS011;62056;52.130;5.428;2023-02-22T02:18:17;18.42;;;10.27;;
73747;SDS011;62056;52.130;5.428;2023-02-22T02:20:50;18.05;;;10.20;;
73747;SDS011;62056;52.130;5.428;2023-02-22T02:23:43;18.33;;;11.25;;
73747;SDS011;62056;52.130;5.428;2023-02-22T02:26:22;24.08;;;11.93;;
73747;SDS011;62056;52.130;5.428;2023-02-22T02:34:34;19.08;;;10.88;;
73747;SDS011;62056;52.130;5.428;2023-02-22T02:37:23;20.15;;;10.65;;
73747;SDS011;62056;52.130;5.428;2023-02-22T02:40:21;24.63;;;12.32;;
73747;SDS011;62056;52.130;5.428;2023-02-22T02:43:11;27.73;;;11.63;;
73747;SDS011;62056;52.130;5.428;2023-02-22T02:48:35;23.27;;;12.95;;
73747;SDS011;62056;52.130;5.428;2023-02-22T02:51:07;43.42;;;21.63;;
73747;SDS011;62056;52.130;5.428;2023-02-22T02:53:41;34.10;;;18.77;;
73747;SDS011;62056;52.130;5.428;2023-02-22T02:56:10;31.57;;;16.57;;
73747;SDS011;62056;52.130;5.428;2023-02-22T02:58:44;40.85;;;18.90;;
73747;SDS011;62056;52.130;5.428;2023-02-22T03:01:17;31.25;;;15.27;;
73747;SDS011;62056;52.130;5.428;2023-02-22T03:06:38;59.45;;;31.80;;
73747;SDS011;62056;52.130;5.428;2023-02-22T03:09:38;32.30;;;16.93;;
73747;SDS011;62056;52.130;5.428;2023-02-22T03:17:47;40.38;;;22.48;;
73747;SDS011;62056;52.130;5.428;2023-02-22T03:20:21;31.02;;;16.83;;
73747;SDS011;62056;52.130;5.428;2023-02-22T03:22:59;30.63;;;15.47;;
73747;SDS011;62056;52.130;5.428;2023-02-22T03:25:37;28.88;;;14.50;;
73747;SDS011;62056;52.130;5.428;2023-02-22T03:28:09;26.65;;;15.13;;
73747;SDS011;62056;52.130;5.428;2023-02-22T03:30:45;27.70;;;14.85;;
73747;SDS011;62056;52.130;5.428;2023-02-22T03:33:18;30.83;;;15.23;;
73747;SDS011;62056;52.130;5.428;2023-02-22T03:35:56;27.70;;;14.77;;
73747;SDS011;62056;52.130;5.428;2023-02-22T03:38:28;31.65;;;14.80;;
73747;SDS011;62056;52.130;5.428;2023-02-22T03:41:00;27.20;;;14.18;;
73747;SDS011;62056;52.130;5.428;2023-02-22T03:43:33;30.08;;;14.40;;
73747;SDS011;62056;52.130;5.428;2023-02-22T03:46:08;30.27;;;14.18;;
73747;SDS011;62056;52.130;5.428;2023-02-22T03:48:55;27.37;;;14.07;;
73747;SDS011;62056;52.130;5.428;2023-02-22T03:51:32;25.27;;;14.35;;
73747;SDS011;62056;52.130;5.428;2023-02-22T03:53:58;35.05;;;15.07;;
73747;SDS011;62056;52.130;5.428;2023-02-22T03:56:30;30.33;;;15.65;;
73747;SDS011;62056;52.130;5.428;2023-02-22T03:59:05;29.92;;;14.73;;
73747;SDS011;62056;52.130;5.428;2023-02-22T04:01:33;30.20;;;14.27;;
73747;SDS011;62056;52.130;5.428;2023-02-22T04:04:01;26.00;;;13.82;;
73747;SDS011;62056;52.130;5.428;2023-02-22T04:06:28;33.30;;;14.68;;
73747;SDS011;62056;52.130;5.428;2023-02-22T04:08:55;30.52;;;14.07;;
73747;SDS011;62056;52.130;5.428;2023-02-22T04:11:22;27.73;;;13.63;;
73747;SDS011;62056;52.130;5.428;2023-02-22T04:13:48;32.97;;;15.67;;
73747;SDS011;62056;52.130;5.428;2023-02-22T04:16:15;28.88;;;14.52;;
73747;SDS011;62056;52.130;5.428;2023-02-22T04:18:41;33.85;;;15.80;;
73747;SDS011;62056;52.130;5.428;2023-02-22T04:21:08;34.42;;;14.88;;
73747;SDS011;62056;52.130;5.428;2023-02-22T04:23:34;35.47;;;16.90;;
73747;SDS011;62056;52.130;5.428;2023-02-22T04:26:01;30.10;;;14.30;;
73747;SDS011;62056;52.130;5.428;2023-02-22T04:28:28;30.05;;;14.63;;
73747;SDS011;62056;52.130;5.428;2023-02-22T04:30:55;31.67;;;15.88;;
73747;SDS011;62056;52.130;5.428;2023-02-22T04:33:22;33.42;;;14.90;;
73747;SDS011;62056;52.130;5.428;2023-02-22T04:35:49;34.88;;;16.13;;
73747;SDS011;62056;52.130;5.428;2023-02-22T04:38:16;33.57;;;15.30;;
73747;SDS011;62056;52.130;5.428;2023-02-22T04:40:43;28.92;;;12.80;;
73747;SDS011;62056;52.130;5.428;2023-02-22T04:43:10;32.03;;;14.45;;
73747;SDS011;62056;52.130;5.428;2023-02-22T04:45:37;30.08;;;13.88;;
73747;SDS011;62056;52.130;5.428;2023-02-22T04:48:03;32.80;;;13.80;;
73747;SDS011;62056;52.130;5.428;2023-02-22T04:50:30;32.03;;;14.73;;
73747;SDS011;62056;52.130;5.428;2023-02-22T04:52:57;40.38;;;17.48;;
73747;SDS011;62056;52.130;5.428;2023-02-22T04:55:23;28.15;;;13.70;;
73747;SDS011;62056;52.130;5.428;2023-02-22T04:57:50;31.30;;;13.55;;
73747;SDS011;62056;52.130;5.428;2023-02-22T05:00:17;36.15;;;15.40;;
73747;SDS011;62056;52.130;5.428;2023-02-22T05:02:47;29.57;;;13.20;;
73747;SDS011;62056;52.130;5.428;2023-02-22T05:05:14;29.02;;;12.82;;
73747;SDS011;62056;52.130;5.428;2023-02-22T05:07:43;32.42;;;14.48;;
73747;SDS011;62056;52.130;5.428;2023-02-22T05:10:10;29.98;;;13.02;;
73747;SDS011;62056;52.130;5.428;2023-02-22T05:12:37;35.30;;;14.80;;
73747;SDS011;62056;52.130;5.428;2023-02-22T05:15:04;32.83;;;14.17;;
73747;SDS011;62056;52.130;5.428;2023-02-22T05:17:32;35.53;;;14.20;;
73747;SDS011;62056;52.130;5.428;2023-02-22T05:19:59;31.73;;;13.50;;
73747;SDS011;62056;52.130;5.428;2023-02-22T05:22:26;28.73;;;13.40;;
73747;SDS011;62056;52.130;5.428;2023-02-22T05:24:53;32.78;;;15.07;;
73747;SDS011;62056;52.130;5.428;2023-02-22T05:27:21;29.87;;;12.63;;
73747;SDS011;62056;52.130;5.428;2023-02-22T05:29:47;34.60;;;14.30;;
73747;SDS011;62056;52.130;5.428;2023-02-22T05:32:14;39.13;;;16.17;;
73747;SDS011;62056;52.130;5.428;2023-02-22T05:34:41;40.70;;;15.75;;
73747;SDS011;62056;52.130;5.428;2023-02-22T05:37:07;39.47;;;15.63;;
73747;SDS011;62056;52.130;5.428;2023-02-22T05:39:34;40.47;;;16.37;;
73747;SDS011;62056;52.130;5.428;2023-02-22T05:42:01;43.10;;;17.27;;
73747;SDS011;62056;52.130;5.428;2023-02-22T05:44:27;36.08;;;15.85;;
73747;SDS011;62056;52.130;5.428;2023-02-22T05:46:54;37.95;;;15.40;;
73747;SDS011;62056;52.130;5.428;2023-02-22T05:49:21;39.72;;;17.08;;
73747;SDS011;62056;52.130;5.428;2023-02-22T05:51:47;36.60;;;14.80;;
73747;SDS011;62056;52.130;5.428;2023-02-22T05:54:14;40.28;;;16.73;;
73747;SDS011;62056;52.130;5.428;2023-02-22T05:56:40;41.83;;;15.68;;
73747;SDS011;62056;52.130;5.428;2023-02-22T05:59:07;43.83;;;16.80;;
73747;SDS011;62056;52.130;5.428;2023-02-22T06:01:33;43.13;;;17.20;;
73747;SDS011;62056;52.130;5.428;2023-02-22T06:04:00;49.17;;;18.70;;
73747;SDS011;62056;52.130;5.428;2023-02-22T06:06:27;37.60;;;14.80;;
73747;SDS011;62056;52.130;5.428;2023-02-22T06:08:54;45.88;;;16.90;;
73747;SDS011;62056;52.130;5.428;2023-02-22T06:11:20;42.15;;;17.08;;
73747;SDS011;62056;52.130;5.428;2023-02-22T06:13:50;43.25;;;16.48;;
73747;SDS011;62056;52.130;5.428;2023-02-22T06:16:18;48.97;;;16.77;;
73747;SDS011;62056;52.130;5.428;2023-02-22T06:18:46;46.15;;;17.23;;
73747;SDS011;62056;52.130;5.428;2023-02-22T06:21:13;36.17;;;15.23;;
73747;SDS011;62056;52.130;5.428;2023-02-22T06:23:40;48.00;;;17.98;;
73747;SDS011;62056;52.130;5.428;2023-02-22T06:26:07;52.97;;;19.02;;
73747;SDS011;62056;52.130;5.428;2023-02-22T06:28:34;47.57;;;17.40;;
73747;SDS011;62056;52.130;5.428;2023-02-22T06:31:00;47.75;;;17.80;;
73747;SDS011;62056;52.130;5.428;2023-02-22T06:33:27;44.88;;;17.30;;
73747;SDS011;62056;52.130;5.428;2023-02-22T06:35:54;46.72;;;17.27;;
73747;SDS011;62056;52.130;5.428;2023-02-22T06:38:21;41.97;;;17.58;;
73747;SDS011;62056;52.130;5.428;2023-02-22T06:40:50;40.13;;;16.40;;
73747;SDS011;62056;52.130;5.428;2023-02-22T06:43:16;50.35;;;18.10;;
73747;SDS011;62056;52.130;5.428;2023-02-22T06:45:43;47.55;;;17.83;;
73747;SDS011;62056;52.130;5.428;2023-02-22T06:48:10;43.83;;;17.30;;
73747;SDS011;62056;52.130;5.428;2023-02-22T06:50:36;49.67;;;17.65;;
73747;SDS011;62056;52.130;5.428;2023-02-22T06:53:03;46.77;;;17.90;;
73747;SDS011;62056;52.130;5.428;2023-02-22T06:55:31;44.08;;;16.35;;
73747;SDS011;62056;52.130;5.428;2023-02-22T06:57:59;39.92;;;15.90;;
73747;SDS011;62056;52.130;5.428;2023-02-22T07:00:27;40.55;;;15.27;;
73747;SDS011;62056;52.130;5.428;2023-02-22T07:02:56;47.30;;;17.25;;
73747;SDS011;62056;52.130;5.428;2023-02-22T07:05:25;47.47;;;17.77;;
73747;SDS011;62056;52.130;5.428;2023-02-22T07:07:53;43.15;;;16.40;;
73747;SDS011;62056;52.130;5.428;2023-02-22T07:10:22;49.42;;;17.65;;
73747;SDS011;62056;52.130;5.428;2023-02-22T07:12:52;40.70;;;15.52;;
73747;SDS011;62056;52.130;5.428;2023-02-22T07:15:19;43.47;;;16.83;;
73747;SDS011;62056;52.130;5.428;2023-02-22T07:17:49;48.73;;;18.17;;
73747;SDS011;62056;52.130;5.428;2023-02-22T07:20:17;50.92;;;19.60;;
73747;SDS011;62056;52.130;5.428;2023-02-22T07:22:46;46.83;;;17.00;;
73747;SDS011;62056;52.130;5.428;2023-02-22T07:25:13;45.33;;;16.42;;
73747;SDS011;62056;52.130;5.428;2023-02-22T07:27:40;47.10;;;18.67;;
73747;SDS011;62056;52.130;5.428;2023-02-22T07:30:14;50.70;;;18.77;;
73747;SDS011;62056;52.130;5.428;2023-02-22T07:32:51;52.42;;;18.67;;
73747;SDS011;62056;52.130;5.428;2023-02-22T07:35:20;48.30;;;17.77;;
73747;SDS011;62056;52.130;5.428;2023-02-22T07:37:50;46.35;;;16.17;;
73747;SDS011;62056;52.130;5.428;2023-02-22T07:40:20;51.70;;;19.73;;
73747;SDS011;62056;52.130;5.428;2023-02-22T07:42:58;50.43;;;19.67;;
73747;SDS011;62056;52.130;5.428;2023-02-22T07:45:30;42.33;;;15.23;;
73747;SDS011;62056;52.130;5.428;2023-02-22T07:47:59;43.75;;;17.33;;
73747;SDS011;62056;52.130;5.428;2023-02-22T07:50:27;43.72;;;16.92;;
73747;SDS011;62056;52.130;5.428;2023-02-22T07:52:56;42.72;;;17.33;;
73747;SDS011;62056;52.130;5.428;2023-02-22T07:55:26;40.43;;;15.87;;
73747;SDS011;62056;52.130;5.428;2023-02-22T07:57:55;38.25;;;15.60;;
73747;SDS011;62056;52.130;5.428;2023-02-22T08:00:28;41.83;;;17.63;;
73747;SDS011;62056;52.130;5.428;2023-02-22T08:02:58;37.88;;;17.00;;
73747;SDS011;62056;52.130;5.428;2023-02-22T08:05:26;41.35;;;17.88;;
73747;SDS011;62056;52.130;5.428;2023-02-22T08:07:55;33.33;;;14.90;;
73747;SDS011;62056;52.130;5.428;2023-02-22T08:10:22;40.33;;;14.85;;
73747;SDS011;62056;52.130;5.428;2023-02-22T08:12:51;34.33;;;15.48;;
73747;SDS011;62056;52.130;5.428;2023-02-22T08:15:20;38.30;;;16.13;;
73747;SDS011;62056;52.130;5.428;2023-02-22T08:17:49;37.50;;;15.88;;
73747;SDS011;62056;52.130;5.428;2023-02-22T08:20:16;37.53;;;16.03;;
73747;SDS011;62056;52.130;5.428;2023-02-22T08:22:43;39.65;;;16.17;;
73747;SDS011;62056;52.130;5.428;2023-02-22T08:25:10;39.70;;;16.98;;
73747;SDS011;62056;52.130;5.428;2023-02-22T08:27:38;33.00;;;15.57;;
73747;SDS011;62056;52.130;5.428;2023-02-22T08:30:05;30.13;;;14.57;;
73747;SDS011;62056;52.130;5.428;2023-02-22T08:32:33;31.23;;;15.23;;
73747;SDS011;62056;52.130;5.428;2023-02-22T08:35:01;32.08;;;15.88;;
73747;SDS011;62056;52.130;5.428;2023-02-22T08:37:28;33.15;;;15.25;;
73747;SDS011;62056;52.130;5.428;2023-02-22T08:39:55;34.63;;;15.05;;
73747;SDS011;62056;52.130;5.428;2023-02-22T08:42:21;27.77;;;13.63;;
73747;SDS011;62056;52.130;5.428;2023-02-22T08:44:49;28.87;;;14.43;;
73747;SDS011;62056;52.130;5.428;2023-02-22T08:47:16;33.70;;;15.35;;
73747;SDS011;62056;52.130;5.428;2023-02-22T08:49:43;32.28;;;14.90;;
73747;SDS011;62056;52.130;5.428;2023-02-22T08:52:26;28.67;;;13.65;;
73747;SDS011;62056;52.130;5.428;2023-02-22T08:55:08;35.10;;;14.73;;
73747;SDS011;62056;52.130;5.428;2023-02-22T08:58:32;28.20;;;13.67;;
73747;SDS011;62056;52.130;5.428;2023-02-22T09:01:46;28.60;;;13.18;;
73747;SDS011;62056;52.130;5.428;2023-02-22T09:04:13;32.70;;;14.30;;
73747;SDS011;62056;52.130;5.428;2023-02-22T09:06:40;29.02;;;14.43;;
73747;SDS011;62056;52.130;5.428;2023-02-22T09:09:07;26.15;;;13.10;;
73747;SDS011;62056;52.130;5.428;2023-02-22T09:11:34;26.17;;;14.27;;
73747;SDS011;62056;52.130;5.428;2023-02-22T09:14:01;30.00;;;15.30;;
73747;SDS011;62056;52.130;5.428;2023-02-22T09:16:28;33.22;;;16.05;;
73747;SDS011;62056;52.130;5.428;2023-02-22T09:18:56;27.13;;;13.98;;
73747;SDS011;62056;52.130;5.428;2023-02-22T09:21:23;32.15;;;15.55;;
73747;SDS011;62056;52.130;5.428;2023-02-22T09:23:49;29.33;;;14.17;;
73747;SDS011;62056;52.130;5.428;2023-02-22T09:26:19;28.20;;;13.60;;
73747;SDS011;62056;52.130;5.428;2023-02-22T09:28:49;31.13;;;14.00;;
73747;SDS011;62056;52.130;5.428;2023-02-22T09:31:16;27.50;;;14.63;;
73747;SDS011;62056;52.130;5.428;2023-02-22T09:33:43;30.70;;;15.80;;
73747;SDS011;62056;52.130;5.428;2023-02-22T09:36:12;28.77;;;15.17;;
73747;SDS011;62056;52.130;5.428;2023-02-22T09:38:40;27.67;;;15.13;;
73747;SDS011;62056;52.130;5.428;2023-02-22T09:46:27;25.00;;;12.77;;
73747;SDS011;62056;52.130;5.428;2023-02-22T09:49:15;27.13;;;14.47;;
73747;SDS011;62056;52.130;5.428;2023-02-22T09:51:47;23.27;;;12.05;;
73747;SDS011;62056;52.130;5.428;2023-02-22T09:54:21;23.35;;;13.02;;
73747;SDS011;62056;52.130;5.428;2023-02-22T09:56:56;20.30;;;11.63;;
73747;SDS011;62056;52.130;5.428;2023-02-22T09:59:28;25.30;;;13.68;;
73747;SDS011;62056;52.130;5.428;2023-02-22T10:02:18;25.80;;;12.60;;
73747;SDS011;62056;52.130;5.428;2023-02-22T10:05:02;20.58;;;11.57;;
73747;SDS011;62056;52.130;5.428;2023-02-22T10:07:32;22.45;;;12.63;;
73747;SDS011;62056;52.130;5.428;2023-02-22T10:10:04;27.08;;;13.27;;
73747;SDS011;62056;52.130;5.428;2023-02-22T10:12:54;24.88;;;14.05;;
73747;SDS011;62056;52.130;5.428;2023-02-22T10:18:25;27.58;;;14.18;;
73747;SDS011;62056;52.130;5.428;2023-02-22T10:21:16;25.65;;;13.77;;
73747;SDS011;62056;52.130;5.428;2023-02-22T10:26:48;24.27;;;13.10;;
73747;SDS011;62056;52.130;5.428;2023-02-22T10:29:17;18.30;;;11.17;;
73747;SDS011;62056;52.130;5.428;2023-02-22T10:31:56;26.75;;;13.68;;
73747;SDS011;62056;52.130;5.428;2023-02-22T10:34:26;22.35;;;13.07;;
73747;SDS011;62056;52.130;5.428;2023-02-22T10:39:49;24.52;;;13.38;;
73747;SDS011;62056;52.130;5.428;2023-02-22T10:42:19;26.67;;;14.03;;
73747;SDS011;62056;52.130;5.428;2023-02-22T10:44:51;26.95;;;13.20;;
73747;SDS011;62056;52.130;5.428;2023-02-22T10:47:18;25.33;;;13.70;;
73747;SDS011;62056;52.130;5.428;2023-02-22T10:49:55;24.95;;;13.20;;
73747;SDS011;62056;52.130;5.428;2023-02-22T10:52:25;19.80;;;12.05;;
73747;SDS011;62056;52.130;5.428;2023-02-22T10:54:55;22.83;;;12.97;;
73747;SDS011;62056;52.130;5.428;2023-02-22T10:57:40;27.88;;;13.82;;
73747;SDS011;62056;52.130;5.428;2023-02-22T11:00:13;19.73;;;12.05;;
73747;SDS011;62056;52.130;5.428;2023-02-22T11:02:50;18.77;;;12.00;;
73747;SDS011;62056;52.130;5.428;2023-02-22T11:05:27;26.25;;;14.15;;
73747;SDS011;62056;52.130;5.428;2023-02-22T11:10:56;25.83;;;13.63;;
73747;SDS011;62056;52.130;5.428;2023-02-22T11:13:31;26.08;;;13.75;;
73747;SDS011;62056;52.130;5.428;2023-02-22T11:21:49;25.67;;;14.83;;
73747;SDS011;62056;52.130;5.428;2023-02-22T11:24:19;19.05;;;11.63;;
73747;SDS011;62056;52.130;5.428;2023-02-22T11:26:50;25.08;;;13.27;;
73747;SDS011;62056;52.130;5.428;2023-02-22T11:29:27;25.92;;;14.60;;
73747;SDS011;62056;52.130;5.428;2023-02-22T11:31:57;23.92;;;13.10;;
73747;SDS011;62056;52.130;5.428;2023-02-22T11:34:37;25.93;;;13.53;;
73747;SDS011;62056;52.130;5.428;2023-02-22T11:37:16;21.52;;;12.27;;
73747;SDS011;62056;52.130;5.428;2023-02-22T11:40:05;25.73;;;12.45;;
73747;SDS011;62056;52.130;5.428;2023-02-22T11:42:44;20.67;;;10.43;;
73747;SDS011;62056;52.130;5.428;2023-02-22T11:45:14;26.33;;;13.20;;
73747;SDS011;62056;52.130;5.428;2023-02-22T11:53:13;18.52;;;9.82;;
73747;SDS011;62056;52.130;5.428;2023-02-22T11:58:37;25.63;;;13.65;;
73747;SDS011;62056;52.130;5.428;2023-02-22T12:01:19;28.13;;;12.97;;
73747;SDS011;62056;52.130;5.428;2023-02-22T12:09:33;25.27;;;11.02;;
73747;SDS011;62056;52.130;5.428;2023-02-22T12:15:16;24.67;;;11.03;;
73747;SDS011;62056;52.130;5.428;2023-02-22T12:18:07;23.63;;;11.77;;
73747;SDS011;62056;52.130;5.428;2023-02-22T12:20:45;27.00;;;13.98;;
73747;SDS011;62056;52.130;5.428;2023-02-22T12:26:17;20.73;;;10.13;;
73747;SDS011;62056;52.130;5.428;2023-02-22T12:28:52;27.77;;;12.80;;
73747;SDS011;62056;52.130;5.428;2023-02-22T12:31:30;26.92;;;13.73;;
73747;SDS011;62056;52.130;5.428;2023-02-22T12:36:33;25.85;;;12.52;;
73747;SDS011;62056;52.130;5.428;2023-02-22T12:39:10;23.75;;;13.18;;
73747;SDS011;62056;52.130;5.428;2023-02-22T12:41:47;29.23;;;13.07;;
73747;SDS011;62056;52.130;5.428;2023-02-22T12:44:30;30.27;;;14.02;;
73747;SDS011;62056;52.130;5.428;2023-02-22T12:47:03;24.25;;;12.57;;
73747;SDS011;62056;52.130;5.428;2023-02-22T12:49:36;25.38;;;12.25;;
73747;SDS011;62056;52.130;5.428;2023-02-22T12:54:50;27.43;;;12.67;;
73747;SDS011;62056;52.130;5.428;2023-02-22T12:57:24;25.67;;;12.55;;
73747;SDS011;62056;52.130;5.428;2023-02-22T13:00:02;23.30;;;12.55;;
73747;SDS011;62056;52.130;5.428;2023-02-22T13:02:42;27.75;;;13.60;;
73747;SDS011;62056;52.130;5.428;2023-02-22T13:05:14;24.55;;;13.38;;
73747;SDS011;62056;52.130;5.428;2023-02-22T13:08:04;24.13;;;12.60;;
73747;SDS011;62056;52.130;5.428;2023-02-22T13:10:44;26.40;;;12.52;;
73747;SDS011;62056;52.130;5.428;2023-02-22T13:13:32;25.08;;;12.55;;
73747;SDS011;62056;52.130;5.428;2023-02-22T13:21:38;24.23;;;12.27;;
73747;SDS011;62056;52.130;5.428;2023-02-22T13:24:28;15.88;;;10.05;;
73747;SDS011;62056;52.130;5.428;2023-02-22T13:29:35;18.92;;;10.38;;
73747;SDS011;62056;52.130;5.428;2023-02-22T13:35:25;28.57;;;13.33;;
73747;SDS011;62056;52.130;5.428;2023-02-22T13:38:05;26.92;;;12.32;;
73747;SDS011;62056;52.130;5.428;2023-02-22T13:44:00;24.88;;;12.43;;
73747;SDS011;62056;52.130;5.428;2023-02-22T13:49:54;25.70;;;12.57;;
73747;SDS011;62056;52.130;5.428;2023-02-22T13:52:40;14.65;;;8.90;;
73747;SDS011;62056;52.130;5.428;2023-02-22T13:55:14;21.15;;;12.38;;
73747;SDS011;62056;52.130;5.428;2023-02-22T13:57:46;22.58;;;12.32;;
73747;SDS011;62056;52.130;5.428;2023-02-22T14:00:17;25.05;;;13.00;;
73747;SDS011;62056;52.130;5.428;2023-02-22T14:13:09;14.85;;;8.45;;
73747;SDS011;62056;52.130;5.428;2023-02-22T14:18:48;23.45;;;11.85;;
73747;SDS011;62056;52.130;5.428;2023-02-22T14:21:26;19.20;;;11.52;;
73747;SDS011;62056;52.130;5.428;2023-02-22T14:23:53;23.25;;;11.90;;
73747;SDS011;62056;52.130;5.428;2023-02-22T14:31:30;18.27;;;11.07;;
73747;SDS011;62056;52.130;5.428;2023-02-22T14:34:04;14.88;;;9.98;;
73747;SDS011;62056;52.130;5.428;2023-02-22T14:36:40;19.85;;;11.82;;
73747;SDS011;62056;52.130;5.428;2023-02-22T14:39:31;19.30;;;11.10;;
73747;SDS011;62056;52.130;5.428;2023-02-22T14:42:04;14.13;;;9.07;;
73747;SDS011;62056;52.130;5.428;2023-02-22T14:45:11;10.95;;;7.90;;
73747;SDS011;62056;52.130;5.428;2023-02-22T14:47:52;11.77;;;8.05;;
73747;SDS011;62056;52.130;5.428;2023-02-22T14:50:35;12.15;;;7.43;;
73747;SDS011;62056;52.130;5.428;2023-02-22T14:53:29;22.35;;;11.07;;
73747;SDS011;62056;52.130;5.428;2023-02-22T14:56:09;15.50;;;9.40;;
73747;SDS011;62056;52.130;5.428;2023-02-22T14:58:57;14.35;;;9.15;;
73747;SDS011;62056;52.130;5.428;2023-02-22T15:01:37;16.63;;;9.40;;
73747;SDS011;62056;52.130;5.428;2023-02-22T15:04:28;12.88;;;8.63;;
73747;SDS011;62056;52.130;5.428;2023-02-22T15:06:59;14.07;;;9.98;;
73747;SDS011;62056;52.130;5.428;2023-02-22T15:10:12;14.57;;;9.23;;
73747;SDS011;62056;52.130;5.428;2023-02-22T15:12:56;18.77;;;11.00;;
73747;SDS011;62056;52.130;5.428;2023-02-22T15:15:39;16.17;;;10.45;;
73747;SDS011;62056;52.130;5.428;2023-02-22T15:18:17;17.88;;;10.25;;
73747;SDS011;62056;52.130;5.428;2023-02-22T15:20:57;9.57;;;7.68;;
73747;SDS011;62056;52.130;5.428;2023-02-22T15:23:39;20.43;;;9.47;;
73747;SDS011;62056;52.130;5.428;2023-02-22T15:29:26;8.75;;;6.72;;
73747;SDS011;62056;52.130;5.428;2023-02-22T15:35:17;12.20;;;7.30;;
73747;SDS011;62056;52.130;5.428;2023-02-22T15:38:04;16.00;;;10.30;;
73747;SDS011;62056;52.130;5.428;2023-02-22T15:40:43;18.75;;;12.93;;
73747;SDS011;62056;52.130;5.428;2023-02-22T15:43:20;14.82;;;10.38;;
73747;SDS011;62056;52.130;5.428;2023-02-22T15:45:57;14.00;;;10.07;;
73747;SDS011;62056;52.130;5.428;2023-02-22T15:48:27;10.68;;;8.52;;
73747;SDS011;62056;52.130;5.428;2023-02-22T15:53:32;11.00;;;7.65;;
73747;SDS011;62056;52.130;5.428;2023-02-22T15:56:08;10.25;;;8.25;;
73747;SDS011;62056;52.130;5.428;2023-02-22T15:58:39;16.38;;;10.80;;
73747;SDS011;62056;52.130;5.428;2023-02-22T16:01:08;12.43;;;8.40;;
73747;SDS011;62056;52.130;5.428;2023-02-22T16:03:41;10.30;;;7.50;;
73747;SDS011;62056;52.130;5.428;2023-02-22T16:06:16;17.42;;;10.15;;
73747;SDS011;62056;52.130;5.428;2023-02-22T16:08:54;11.32;;;6.72;;
73747;SDS011;62056;52.130;5.428;2023-02-22T16:11:30;16.40;;;10.48;;
73747;SDS011;62056;52.130;5.428;2023-02-22T16:14:03;11.95;;;7.68;;
73747;SDS011;62056;52.130;5.428;2023-02-22T16:16:34;16.90;;;11.73;;
73747;SDS011;62056;52.130;5.428;2023-02-22T16:21:58;16.58;;;10.98;;
73747;SDS011;62056;52.130;5.428;2023-02-22T16:24:30;20.00;;;11.07;;
73747;SDS011;62056;52.130;5.428;2023-02-22T16:27:13;15.73;;;11.30;;
73747;SDS011;62056;52.130;5.428;2023-02-22T16:29:42;15.63;;;11.30;;
73747;SDS011;62056;52.130;5.428;2023-02-22T16:32:09;16.73;;;11.95;;
73747;SDS011;62056;52.130;5.428;2023-02-22T16:34:37;17.27;;;10.80;;
73747;SDS011;62056;52.130;5.428;2023-02-22T16:37:05;16.73;;;12.07;;
73747;SDS011;62056;52.130;5.428;2023-02-22T16:39:47;15.15;;;9.35;;
73747;SDS011;62056;52.130;5.428;2023-02-22T16:42:17;15.73;;;11.63;;
73747;SDS011;62056;52.130;5.428;2023-02-22T16:44:49;13.32;;;9.90;;
73747;SDS011;62056;52.130;5.428;2023-02-22T16:47:17;20.02;;;12.50;;
73747;SDS011;62056;52.130;5.428;2023-02-22T16:49:47;14.00;;;10.20;;